Airport View

Enter AWOS ICAO identifier for current METAR.

ex. KFNL

KI75 011235Z AUTO 30008KT 10SM CLR 09/02 A3014 RMK AO2 T00870024

1 Oct 2020 12:41

Frequency: 120.975

Phone: 641-342-1422

Other Area AWOS: KCNC - KLWD - KDSM - KOXV

TAF KDSM 011125Z 0112/0212 32012G20KT P6SM SCT060 FM011600 33015G23KT P6SM SCT080 FM020000 32008KT P6SM FEW060